createdAt,value
2018-06-03T00:00:51.353Z,29.50
2018-06-03T00:03:17.589Z,25.63
2018-06-03T00:05:43.803Z,25.30
2018-06-03T00:08:10.038Z,26.30
2018-06-03T00:10:36.215Z,25.43
2018-06-03T00:13:02.508Z,28.00
2018-06-03T00:15:28.721Z,27.03
2018-06-03T00:17:54.916Z,29.07
2018-06-03T00:20:33.242Z,27.20
2018-06-03T00:22:59.423Z,27.07
2018-06-03T00:25:26.388Z,29.40
2018-06-03T00:27:52.578Z,30.07
2018-06-03T00:30:18.805Z,27.97
2018-06-03T00:32:45.041Z,29.87
2018-06-03T00:35:11.258Z,27.70
2018-06-03T00:37:37.474Z,29.53
2018-06-03T00:40:03.694Z,28.80
2018-06-03T00:42:29.901Z,28.40
2018-06-03T00:44:56.129Z,31.17
2018-06-03T00:47:23.081Z,34.90
2018-06-03T00:49:49.306Z,32.40
2018-06-03T00:52:15.553Z,27.17
2018-06-03T00:54:41.762Z,29.63
2018-06-03T00:57:07.986Z,31.90
2018-06-03T00:59:34.230Z,27.93
2018-06-03T01:02:00.409Z,27.93
2018-06-03T01:04:26.659Z,32.33
2018-06-03T01:06:52.850Z,29.90
2018-06-03T01:09:19.050Z,30.00
2018-06-03T01:11:45.234Z,26.97
2018-06-03T01:14:11.421Z,34.50
2018-06-03T01:16:38.383Z,31.00
2018-06-03T01:19:05.358Z,29.13
2018-06-03T01:21:31.609Z,30.30
2018-06-03T01:23:57.813Z,29.67
2018-06-03T01:26:23.994Z,28.27
2018-06-03T01:28:50.210Z,31.03
2018-06-03T01:31:16.392Z,28.23
2018-06-03T01:33:43.632Z,28.63
2018-06-03T01:36:09.825Z,29.80
2018-06-03T01:38:36.102Z,28.90
2018-06-03T01:41:02.310Z,32.33
2018-06-03T01:43:28.477Z,30.50
2018-06-03T01:45:54.681Z,30.80
2018-06-03T01:48:20.872Z,28.37
2018-06-03T01:50:47.061Z,28.23
2018-06-03T01:53:13.258Z,30.70
2018-06-03T01:55:39.461Z,32.40
2018-06-03T01:58:06.393Z,29.47
2018-06-03T02:00:32.669Z,30.00
2018-06-03T02:02:58.883Z,32.60
2018-06-03T02:05:25.621Z,31.07
2018-06-03T02:07:51.830Z,30.60
2018-06-03T02:10:18.809Z,32.13
2018-06-03T02:12:45.006Z,33.60
2018-06-03T02:15:11.211Z,32.73
2018-06-03T02:17:37.401Z,35.03
2018-06-03T02:20:03.773Z,35.17
2018-06-03T02:22:30.002Z,36.00
2018-06-03T02:24:56.231Z,35.33
2018-06-03T02:27:22.427Z,36.27
2018-06-03T02:29:48.629Z,36.43
2018-06-03T02:32:14.804Z,34.60
2018-06-03T02:34:41.011Z,33.60
2018-06-03T02:37:07.242Z,38.10
2018-06-03T02:39:33.468Z,36.83
2018-06-03T02:41:59.685Z,38.27
2018-06-03T02:44:25.890Z,35.27
2018-06-03T02:46:52.101Z,30.80
2018-06-03T02:49:18.311Z,37.13
2018-06-03T02:51:45.285Z,37.47
2018-06-03T02:54:11.545Z,33.63
2018-06-03T02:56:37.785Z,37.70
2018-06-03T02:59:04.110Z,45.57
2018-06-03T03:01:30.342Z,38.83
2018-06-03T03:03:56.529Z,40.17
2018-06-03T03:06:22.761Z,39.53
2018-06-03T03:08:49.009Z,43.40
2018-06-03T03:11:15.212Z,41.40
2018-06-03T03:13:41.412Z,40.43
2018-06-03T03:16:07.621Z,38.50
2018-06-03T03:18:33.818Z,42.33
2018-06-03T03:21:00.046Z,42.73
2018-06-03T03:23:26.275Z,41.83
2018-06-03T03:25:52.476Z,42.37
2018-06-03T03:28:18.672Z,43.97
2018-06-03T03:30:44.905Z,41.27
2018-06-03T03:33:11.130Z,42.57
2018-06-03T03:35:37.502Z,40.83
2018-06-03T03:38:03.765Z,48.93
2018-06-03T03:40:29.969Z,43.97
2018-06-03T03:42:56.202Z,46.73
2018-06-03T03:45:22.432Z,45.80
2018-06-03T03:47:48.657Z,41.77
2018-06-03T03:50:14.865Z,49.00
2018-06-03T03:52:41.085Z,53.93
2018-06-03T03:55:07.430Z,46.70
2018-06-03T03:57:33.840Z,49.17
2018-06-03T04:00:00.026Z,51.07
2018-06-03T04:02:26.251Z,49.97
2018-06-03T04:04:52.445Z,54.97
2018-06-03T04:07:18.669Z,49.33
2018-06-03T04:09:44.881Z,48.23
2018-06-03T04:12:11.095Z,49.50
2018-06-03T04:14:37.276Z,48.03
2018-06-03T04:17:03.633Z,46.10
2018-06-03T04:19:29.821Z,46.83
2018-06-03T04:21:56.018Z,47.67
2018-06-03T04:24:22.212Z,52.43
2018-06-03T04:27:22.141Z,47.80
2018-06-03T04:29:49.628Z,46.30
2018-06-03T04:32:17.150Z,45.23
2018-06-03T04:34:44.615Z,46.40
2018-06-03T04:37:12.179Z,42.10
2018-06-03T04:39:39.669Z,49.77
2018-06-03T04:42:07.172Z,47.13
2018-06-03T04:44:34.768Z,48.50
2018-06-03T04:47:02.346Z,45.60
2018-06-03T04:49:29.826Z,46.10
2018-06-03T04:51:57.327Z,44.93
2018-06-03T04:54:24.822Z,52.13
2018-06-03T04:56:52.373Z,46.60
2018-06-03T04:59:20.957Z,52.20
2018-06-03T05:01:50.654Z,52.23
2018-06-03T05:04:18.193Z,50.50
2018-06-03T05:06:45.721Z,52.50
2018-06-03T05:09:13.173Z,61.40
2018-06-03T05:11:40.741Z,56.10
2018-06-03T05:14:08.248Z,53.30
2018-06-03T05:16:35.741Z,56.60
2018-06-03T05:19:03.283Z,61.57
2018-06-03T05:21:30.756Z,52.40
2018-06-03T05:23:58.266Z,50.90
2018-06-03T05:26:25.774Z,57.07
2018-06-03T05:28:53.279Z,54.00
2018-06-03T05:31:20.770Z,51.70
2018-06-03T05:33:48.278Z,56.33
2018-06-03T05:36:15.802Z,52.33
2018-06-03T05:38:43.317Z,57.57
2018-06-03T05:41:10.817Z,59.80
2018-06-03T05:43:38.354Z,62.20
2018-06-03T05:46:05.903Z,62.93
2018-06-03T05:48:33.413Z,63.33
2018-06-03T05:51:00.884Z,62.50
2018-06-03T05:53:28.393Z,62.40
2018-06-03T05:55:55.894Z,60.40
2018-06-03T05:58:23.402Z,67.43
2018-06-03T06:00:50.908Z,68.97
2018-06-03T06:03:18.461Z,67.87
2018-06-03T06:05:45.880Z,73.27
2018-06-03T06:08:13.405Z,73.63
2018-06-03T06:10:40.942Z,70.33
2018-06-03T06:13:08.468Z,69.50
2018-06-03T06:15:35.983Z,74.53
2018-06-03T06:18:03.621Z,71.73
2018-06-03T06:20:31.293Z,73.50
2018-06-03T06:22:58.818Z,68.63
2018-06-03T06:25:26.324Z,67.47
2018-06-03T06:27:53.827Z,71.33
2018-06-03T06:30:21.345Z,76.63
2018-06-03T06:32:48.931Z,68.40
2018-06-03T06:35:16.427Z,69.80
2018-06-03T06:37:44.001Z,69.67
2018-06-03T06:40:11.503Z,64.30
2018-06-03T06:42:39.009Z,71.07
2018-06-03T06:45:06.590Z,65.07
2018-06-03T06:47:34.126Z,68.43
2018-06-03T06:50:01.771Z,70.53
2018-06-03T06:52:29.278Z,67.17
2018-06-03T06:54:56.755Z,72.00
2018-06-03T06:57:24.335Z,68.17
2018-06-03T06:59:51.878Z,67.93
2018-06-03T07:02:19.462Z,72.67
2018-06-03T07:04:46.976Z,65.00
2018-06-03T07:07:14.563Z,75.07
2018-06-03T07:09:42.080Z,69.67
2018-06-03T07:12:09.646Z,63.90
2018-06-03T07:14:37.235Z,68.73
2018-06-03T07:17:04.735Z,66.27
2018-06-03T07:19:32.880Z,61.60
2018-06-03T07:22:00.410Z,62.53
2018-06-03T07:24:27.937Z,67.77
2018-06-03T07:26:55.497Z,69.80
2018-06-03T07:29:23.118Z,64.60
2018-06-03T07:31:50.695Z,65.27
2018-06-03T07:34:18.293Z,63.67
2018-06-03T07:36:45.828Z,58.77
2018-06-03T07:39:13.376Z,69.93
2018-06-03T07:41:40.905Z,67.40
2018-06-03T07:44:08.562Z,61.63
2018-06-03T07:46:36.116Z,65.57
2018-06-03T07:49:03.694Z,63.37
2018-06-03T07:51:31.212Z,58.17
2018-06-03T07:53:58.814Z,67.87
2018-06-03T07:56:26.397Z,58.00
2018-06-03T07:58:53.952Z,64.47
2018-06-03T08:01:21.357Z,53.93
2018-06-03T08:03:48.966Z,56.40
2018-06-03T08:06:16.494Z,50.60
2018-06-03T08:08:44.018Z,51.67
2018-06-03T08:11:11.491Z,55.30
2018-06-03T08:13:38.997Z,52.33
2018-06-03T08:16:06.462Z,63.93
2018-06-03T08:18:33.974Z,47.17
2018-06-03T08:21:01.546Z,52.57
2018-06-03T08:23:29.053Z,53.07
2018-06-03T08:25:56.577Z,49.47
2018-06-03T08:28:24.510Z,54.60
2018-06-03T08:30:52.014Z,49.47
2018-06-03T08:33:19.532Z,55.60
2018-06-03T08:35:47.070Z,50.43
2018-06-03T08:38:14.742Z,53.93
2018-06-03T08:40:42.714Z,48.63
2018-06-03T08:43:12.106Z,54.37
2018-06-03T08:45:42.067Z,47.23
2018-06-03T08:48:09.608Z,47.53
2018-06-03T08:50:37.215Z,46.63
2018-06-03T08:53:04.777Z,46.30
2018-06-03T08:55:32.253Z,41.80
2018-06-03T08:57:59.788Z,40.13
2018-06-03T09:00:27.322Z,34.90
2018-06-03T09:02:54.920Z,35.70
2018-06-03T09:05:22.436Z,37.23
2018-06-03T09:07:49.924Z,36.33
2018-06-03T09:10:17.485Z,37.00
2018-06-03T09:12:45.009Z,37.97
2018-06-03T09:15:12.527Z,36.80
2018-06-03T09:17:40.027Z,36.20
2018-06-03T09:20:07.537Z,40.77
2018-06-03T09:22:35.001Z,38.40
2018-06-03T09:25:02.537Z,34.47
2018-06-03T09:27:30.041Z,38.07
2018-06-03T09:29:57.546Z,39.47
2018-06-03T09:32:25.038Z,39.83
2018-06-03T09:34:52.537Z,36.90
2018-06-03T09:37:20.090Z,37.37
2018-06-03T09:39:47.610Z,38.27
2018-06-03T09:42:16.945Z,41.50
2018-06-03T09:44:44.687Z,42.90
2018-06-03T09:47:12.174Z,40.63
2018-06-03T09:49:39.734Z,42.53
2018-06-03T09:52:07.230Z,33.70
2018-06-03T09:54:34.736Z,34.47
2018-06-03T09:57:02.244Z,32.73
2018-06-03T09:59:29.757Z,28.70
2018-06-03T10:01:57.289Z,36.87
2018-06-03T10:04:24.806Z,37.93
2018-06-03T10:06:56.500Z,34.00
2018-06-03T10:09:24.013Z,36.50
2018-06-03T10:11:51.522Z,32.87
2018-06-03T10:14:19.034Z,34.30
2018-06-03T10:16:46.593Z,38.07
2018-06-03T10:19:14.154Z,39.37
2018-06-03T10:21:41.661Z,31.93
2018-06-03T10:24:09.186Z,34.33
2018-06-03T10:26:36.682Z,40.80
2018-06-03T10:29:05.986Z,33.53
2018-06-03T10:31:33.481Z,33.80
2018-06-03T10:34:00.975Z,31.87
2018-06-03T10:36:28.452Z,37.83
2018-06-03T10:38:55.949Z,28.60
2018-06-03T10:41:23.478Z,28.80
2018-06-03T10:43:51.011Z,27.20
2018-06-03T10:46:18.520Z,27.97
2018-06-03T10:48:46.019Z,31.63
2018-06-03T10:51:13.550Z,32.80
2018-06-03T10:53:41.097Z,33.83
2018-06-03T10:56:08.639Z,25.40
2018-06-03T10:58:36.183Z,27.00
2018-06-03T11:01:03.714Z,30.30
2018-06-03T11:03:31.197Z,28.27
2018-06-03T11:05:58.702Z,25.97
2018-06-03T11:08:26.182Z,28.50
2018-06-03T11:10:53.701Z,28.77
2018-06-03T11:13:21.554Z,27.87
2018-06-03T11:15:49.057Z,29.40
2018-06-03T11:18:16.600Z,26.17
2018-06-03T11:20:44.215Z,24.17
2018-06-03T11:23:11.730Z,26.90
2018-06-03T11:25:39.251Z,26.70
2018-06-03T11:28:07.128Z,29.50
2018-06-03T11:30:34.663Z,28.50
2018-06-03T11:33:02.251Z,26.93
2018-06-03T11:35:29.764Z,30.30
2018-06-03T11:37:57.377Z,29.33
2018-06-03T11:40:24.921Z,31.13
2018-06-03T11:42:52.477Z,31.60
2018-06-03T11:45:20.018Z,28.83
2018-06-03T11:47:47.529Z,28.63
2018-06-03T11:50:15.057Z,29.60
2018-06-03T11:52:42.550Z,32.13
2018-06-03T11:55:10.074Z,28.40
2018-06-03T11:59:52.318Z,28.20
2018-06-03T12:02:19.890Z,26.57
2018-06-03T12:04:47.442Z,24.63
2018-06-03T12:07:14.966Z,24.87
2018-06-03T12:09:42.461Z,24.50
2018-06-03T12:12:10.054Z,27.50
2018-06-03T12:14:37.589Z,23.80
2018-06-03T12:17:05.145Z,21.70
2018-06-03T12:19:32.680Z,23.70
2018-06-03T12:22:00.230Z,21.47
2018-06-03T12:24:27.717Z,22.43
2018-06-03T12:26:55.281Z,23.27
2018-06-03T12:29:22.796Z,23.07
2018-06-03T12:31:50.330Z,23.30
2018-06-03T12:34:17.812Z,23.00
2018-06-03T12:36:45.333Z,22.60
2018-06-03T12:39:12.829Z,22.60
2018-06-03T12:41:40.325Z,21.67
2018-06-03T12:44:07.865Z,20.93
2018-06-03T12:46:35.403Z,20.67
2018-06-03T12:49:02.938Z,18.37
2018-06-03T12:51:30.481Z,19.07
2018-06-03T12:53:57.984Z,18.37
2018-06-03T12:56:25.661Z,17.37
2018-06-03T12:58:53.209Z,19.60
2018-06-03T13:01:20.735Z,18.97
2018-06-03T13:03:48.320Z,20.13
2018-06-03T13:06:15.837Z,19.53
2018-06-03T13:08:43.362Z,18.63
2018-06-03T13:11:10.927Z,16.87
2018-06-03T13:13:38.441Z,17.97
2018-06-03T13:16:05.965Z,23.60
2018-06-03T13:18:33.695Z,19.17
2018-06-03T13:21:01.296Z,21.27
2018-06-03T13:23:28.806Z,19.03
2018-06-03T13:25:56.351Z,19.10
2018-06-03T13:28:23.877Z,18.10
2018-06-03T13:30:51.399Z,19.50
2018-06-03T13:33:19.716Z,28.23
2018-06-03T13:35:47.547Z,19.27
2018-06-03T13:38:15.166Z,20.77
2018-06-03T13:40:42.691Z,18.77
2018-06-03T13:43:10.217Z,20.80
2018-06-03T13:45:38.090Z,18.63
2018-06-03T13:48:06.209Z,19.07
2018-06-03T13:50:34.638Z,18.33
2018-06-03T13:53:02.353Z,16.47
2018-06-03T13:55:29.841Z,18.63
2018-06-03T13:57:57.844Z,18.30
2018-06-03T14:00:25.366Z,17.50
2018-06-03T14:02:52.894Z,18.60
2018-06-03T14:05:20.618Z,16.93
2018-06-03T14:07:48.169Z,17.83
2018-06-03T14:10:15.674Z,18.50
2018-06-03T14:12:43.420Z,18.13
2018-06-03T14:15:10.996Z,17.83
2018-06-03T14:17:38.554Z,18.40
2018-06-03T14:20:06.141Z,16.60
2018-06-03T14:22:33.872Z,17.17
2018-06-03T14:25:01.370Z,19.13
2018-06-03T14:27:28.892Z,18.93
2018-06-03T14:29:56.405Z,18.70
2018-06-03T14:32:24.295Z,17.90
2018-06-03T14:34:51.806Z,20.07
2018-06-03T14:37:19.455Z,19.30
2018-06-03T14:39:46.955Z,17.87
2018-06-03T14:42:14.529Z,17.47
2018-06-03T14:44:42.013Z,17.27
2018-06-03T14:47:10.308Z,17.70
2018-06-03T14:49:39.034Z,15.03
2018-06-03T14:52:06.975Z,14.33
2018-06-03T14:54:35.638Z,14.17
2018-06-03T14:57:03.194Z,13.70
2018-06-03T14:59:30.634Z,15.93
2018-06-03T15:01:58.736Z,12.00
2018-06-03T15:04:26.133Z,13.20
2018-06-03T15:06:55.840Z,12.37
2018-06-03T15:09:24.229Z,11.53
2018-06-03T15:11:51.913Z,11.97
2018-06-03T15:14:19.657Z,10.13
2018-06-03T15:16:48.234Z,11.47
2018-06-03T15:19:16.574Z,11.10
2018-06-03T15:21:45.293Z,10.40
2018-06-03T15:24:13.959Z,12.27
2018-06-03T15:26:42.975Z,10.93
2018-06-03T15:29:13.613Z,11.03
2018-06-03T15:31:42.789Z,11.43
2018-06-03T15:34:10.348Z,10.73
2018-06-03T15:36:38.022Z,9.80
2018-06-03T15:39:07.410Z,10.60
2018-06-03T15:41:35.026Z,10.90
2018-06-03T15:44:02.811Z,10.27
2018-06-03T15:46:32.314Z,9.10
2018-06-03T15:49:00.032Z,10.00
2018-06-03T15:51:29.671Z,9.90
2018-06-03T15:53:57.145Z,9.60
2018-06-03T15:56:24.654Z,8.90
2018-06-03T15:58:54.990Z,9.73
2018-06-03T16:01:23.999Z,10.10
2018-06-03T16:03:51.779Z,10.00
2018-06-03T16:06:19.320Z,11.43
2018-06-03T16:08:46.873Z,10.53
2018-06-03T16:11:14.381Z,11.70
2018-06-03T16:13:42.059Z,9.90
2018-06-03T16:16:10.134Z,10.47
2018-06-03T16:18:37.688Z,11.70
2018-06-03T16:21:05.278Z,11.33
2018-06-03T16:23:32.822Z,11.40
2018-06-03T16:26:00.435Z,10.70
2018-06-03T16:28:27.926Z,12.73
2018-06-03T16:30:55.441Z,10.80
2018-06-03T16:33:22.988Z,11.33
2018-06-03T16:35:50.512Z,12.17
2018-06-03T16:38:18.119Z,12.27
2018-06-03T16:40:45.627Z,11.53
2018-06-03T16:43:13.165Z,14.10
2018-06-03T16:45:40.901Z,11.97
2018-06-03T16:48:08.413Z,12.40
2018-06-03T16:50:35.962Z,12.23
2018-06-03T16:53:03.828Z,12.77
2018-06-03T16:55:31.396Z,13.80
2018-06-03T16:57:59.185Z,11.10
2018-06-03T17:00:26.685Z,11.20
2018-06-03T17:02:54.217Z,11.23
2018-06-03T17:05:21.709Z,11.17
2018-06-03T17:07:49.195Z,10.63
2018-06-03T17:10:16.786Z,9.73
2018-06-03T17:12:44.885Z,10.07
2018-06-03T17:15:12.402Z,10.03
2018-06-03T17:17:40.736Z,10.33
2018-06-03T17:20:09.786Z,10.13
2018-06-03T17:22:37.850Z,11.33
2018-06-03T17:25:05.416Z,11.20
2018-06-03T17:27:33.401Z,10.40
2018-06-03T17:30:01.910Z,9.40
2018-06-03T17:32:31.083Z,9.50
2018-06-03T17:34:58.821Z,8.60
2018-06-03T17:37:26.446Z,10.83
2018-06-03T17:39:54.040Z,10.33
2018-06-03T17:42:21.609Z,9.23
2018-06-03T17:44:49.160Z,9.50
2018-06-03T17:47:16.689Z,10.57
2018-06-03T17:49:44.430Z,8.73
2018-06-03T17:52:11.902Z,10.00
2018-06-03T17:54:39.471Z,9.10
2018-06-03T17:57:07.044Z,8.90
2018-06-03T17:59:34.549Z,9.40
2018-06-03T18:02:02.158Z,8.37
2018-06-03T18:04:30.050Z,9.17
2018-06-03T18:06:57.562Z,8.20
2018-06-03T18:09:25.141Z,8.40
2018-06-03T18:11:52.675Z,9.30
2018-06-03T18:14:20.211Z,8.47
2018-06-03T18:16:47.940Z,7.80
2018-06-03T18:19:20.713Z,7.80
2018-06-03T18:21:48.262Z,8.50
2018-06-03T18:24:15.839Z,7.97
2018-06-03T18:26:43.386Z,7.63
2018-06-03T18:29:10.990Z,7.90
2018-06-03T18:31:38.605Z,8.37
2018-06-03T18:34:06.172Z,9.47
2018-06-03T18:36:33.785Z,8.50
2018-06-03T18:39:01.379Z,8.30
2018-06-03T18:41:28.962Z,8.13
2018-06-03T18:43:56.601Z,12.10
2018-06-03T18:46:24.253Z,8.13
2018-06-03T18:48:51.785Z,8.13
2018-06-03T18:51:19.231Z,8.10
2018-06-03T18:53:46.831Z,8.40
2018-06-03T18:56:14.321Z,8.37
2018-06-03T18:58:41.814Z,9.70
2018-06-03T19:01:09.509Z,9.87
2018-06-03T19:03:37.028Z,9.37
2018-06-03T19:06:04.574Z,7.67
2018-06-03T19:08:32.115Z,9.33
2018-06-03T19:10:59.609Z,8.27
2018-06-03T19:13:27.114Z,8.17
2018-06-03T19:15:54.658Z,8.00
2018-06-03T19:18:22.397Z,9.03
2018-06-03T19:20:50.956Z,9.27
2018-06-03T19:23:18.489Z,9.00
2018-06-03T19:25:46.058Z,8.97
2018-06-03T19:28:13.588Z,8.67
2018-06-03T19:30:41.139Z,9.33
2018-06-03T19:33:08.665Z,9.43
2018-06-03T19:35:36.182Z,9.03
2018-06-03T19:38:04.361Z,10.37
2018-06-03T19:40:32.096Z,10.23
2018-06-03T19:42:59.481Z,9.90
2018-06-03T19:45:26.981Z,9.93
2018-06-03T19:47:54.578Z,10.50
2018-06-03T19:50:22.081Z,10.50
2018-06-03T19:52:49.615Z,13.03
2018-06-03T19:55:17.284Z,12.30
2018-06-03T19:57:44.769Z,11.37
2018-06-03T20:00:12.361Z,10.20
2018-06-03T20:02:39.998Z,13.97
2018-06-03T20:05:07.789Z,14.63
2018-06-03T20:07:35.385Z,15.20
2018-06-03T20:10:03.254Z,15.97
2018-06-03T20:12:31.423Z,16.20
2018-06-03T20:14:58.921Z,14.67
2018-06-03T20:17:26.467Z,16.60
2018-06-03T20:19:53.953Z,15.70
2018-06-03T20:22:21.512Z,14.30
2018-06-03T20:24:49.028Z,16.17
2018-06-03T20:27:16.509Z,15.23
2018-06-03T20:29:44.018Z,13.90
2018-06-03T20:32:11.524Z,16.50
2018-06-03T20:34:39.015Z,14.87
2018-06-03T20:37:06.538Z,15.10
2018-06-03T20:39:34.071Z,13.90
2018-06-03T20:42:01.623Z,13.30
2018-06-03T20:44:29.122Z,15.97
2018-06-03T20:46:56.653Z,14.80
2018-06-03T20:49:24.212Z,13.67
2018-06-03T20:51:51.708Z,16.10
2018-06-03T20:54:19.418Z,15.70
2018-06-03T20:56:46.929Z,15.37
2018-06-03T20:59:14.416Z,15.17
2018-06-03T21:01:41.946Z,14.77
2018-06-03T21:04:09.535Z,14.70
2018-06-03T21:06:37.064Z,14.40
2018-06-03T21:09:06.702Z,15.23
2018-06-03T21:11:34.739Z,15.80
2018-06-03T21:14:02.718Z,17.40
2018-06-03T21:16:30.245Z,15.67
2018-06-03T21:18:57.637Z,14.43
2018-06-03T21:21:25.117Z,15.90
2018-06-03T21:23:53.273Z,15.27
2018-06-03T21:26:20.808Z,14.10
2018-06-03T21:28:48.306Z,15.30
2018-06-03T21:31:15.809Z,16.03
2018-06-03T21:33:43.281Z,18.03
2018-06-03T21:36:10.805Z,16.03
2018-06-03T21:38:38.300Z,17.00
2018-06-03T21:41:05.810Z,17.53
2018-06-03T21:43:33.321Z,19.33
2018-06-03T21:46:01.420Z,16.23
2018-06-03T21:48:28.914Z,16.70
2018-06-03T21:50:56.449Z,38.57
2018-06-03T21:53:24.205Z,18.63
2018-06-03T21:55:51.692Z,17.90
2018-06-03T21:58:19.485Z,17.60
2018-06-03T22:00:47.474Z,17.83
2018-06-03T22:03:14.945Z,18.20
2018-06-03T22:05:42.468Z,16.50
2018-06-03T22:08:10.085Z,15.83
2018-06-03T22:10:37.581Z,19.47
2018-06-03T22:13:05.910Z,16.70
2018-06-03T22:15:33.458Z,19.23
2018-06-03T22:18:03.417Z,18.20
2018-06-03T22:20:31.000Z,17.47
2018-06-03T22:22:58.489Z,17.83
2018-06-03T22:25:25.989Z,18.07
2018-06-03T22:27:54.420Z,105.50
2018-06-03T22:30:22.737Z,18.57
2018-06-03T22:32:50.385Z,21.00
2018-06-03T22:35:17.873Z,19.73
2018-06-03T22:37:46.369Z,18.23
2018-06-03T22:40:13.994Z,17.67
2018-06-03T22:42:41.691Z,16.87
2018-06-03T22:45:09.172Z,21.70
2018-06-03T22:47:36.673Z,19.10
2018-06-03T22:50:04.180Z,17.23
2018-06-03T22:52:31.697Z,20.10
2018-06-03T22:54:59.157Z,17.37
2018-06-03T22:57:44.246Z,18.53
2018-06-03T23:00:21.990Z,17.10
2018-06-03T23:02:55.317Z,19.23
2018-06-03T23:05:22.917Z,19.40
2018-06-03T23:07:50.815Z,19.83
2018-06-03T23:10:18.298Z,19.83
2018-06-03T23:12:45.798Z,23.73
2018-06-03T23:15:13.278Z,21.23
2018-06-03T23:17:40.769Z,22.23
2018-06-03T23:20:08.219Z,18.90
2018-06-03T23:22:35.734Z,21.60
2018-06-03T23:25:03.309Z,20.43
2018-06-03T23:27:30.798Z,19.60
2018-06-03T23:29:58.330Z,22.40
2018-06-03T23:32:25.826Z,22.70
2018-06-03T23:34:53.322Z,21.67
2018-06-03T23:37:20.845Z,22.60
2018-06-03T23:39:48.334Z,20.83
2018-06-03T23:42:15.829Z,22.37
2018-06-03T23:44:43.306Z,21.67
2018-06-03T23:47:10.783Z,21.40
2018-06-03T23:49:38.270Z,26.03
2018-06-03T23:52:05.769Z,22.00
2018-06-03T23:54:33.217Z,23.43
2018-06-03T23:57:00.661Z,23.23
2018-06-03T23:59:28.175Z,26.63
